Arlington, Indiana
Current Conditions -  °F | °C
As of 1:53 AM on Friday 31 Oct 2014 (Local Time) from KGEZ Reporting Station
Overcast Overcast  
Wind Chill: 48°   Ceiling: 4400
Heat Index: 48°   Visibility: 10mi
Dew Point: 40°   Wind: 3mph
Humidity: 74%   Direction: 190°S
Pressure: 30.02"   Gusts: NA
Location:  39.64°N, 85.57°W
Report Text: KGEZ 310553Z AUTO 19003KT 10SM OVC044 09/04 A3002 RMK AO2 RAB0457E08 SLP168 P0000 60000 T00890044 10094 20083 58006
Loading
Personal Weather Stations






























Interactive Weather Map
Tropical Storm Tracking
New forecast layout! Learn more

10-Day Weather Forecast

Advertisements
Track Severe Weather on mobile